sensor_id;sensor_type;location;lat;lon;timestamp;P1;durP1;ratioP1;P2;durP2;ratioP2
43933;SDS011;59081;42.706;23.306;2023-01-01T00:01:42;389.50;;;209.88;;
43933;SDS011;59081;42.706;23.306;2023-01-01T00:04:12;391.85;;;204.48;;
43933;SDS011;59081;42.706;23.306;2023-01-01T00:06:39;378.20;;;202.98;;
43933;SDS011;59081;42.706;23.306;2023-01-01T00:09:05;384.13;;;200.90;;
43933;SDS011;59081;42.706;23.306;2023-01-01T00:11:50;376.33;;;194.88;;
43933;SDS011;59081;42.706;23.306;2023-01-01T00:14:15;383.10;;;199.32;;
43933;SDS011;59081;42.706;23.306;2023-01-01T00:16:41;378.92;;;194.93;;
43933;SDS011;59081;42.706;23.306;2023-01-01T00:19:06;373.88;;;191.32;;
43933;SDS011;59081;42.706;23.306;2023-01-01T00:21:32;383.08;;;194.50;;
43933;SDS011;59081;42.706;23.306;2023-01-01T00:23:57;358.80;;;181.25;;
43933;SDS011;59081;42.706;23.306;2023-01-01T00:26:23;366.50;;;190.38;;
43933;SDS011;59081;42.706;23.306;2023-01-01T00:28:48;378.77;;;192.00;;
43933;SDS011;59081;42.706;23.306;2023-01-01T00:31:15;382.42;;;196.05;;
43933;SDS011;59081;42.706;23.306;2023-01-01T00:33:43;377.20;;;192.75;;
43933;SDS011;59081;42.706;23.306;2023-01-01T00:36:17;380.92;;;198.35;;
43933;SDS011;59081;42.706;23.306;2023-01-01T00:38:44;366.30;;;190.75;;
43933;SDS011;59081;42.706;23.306;2023-01-01T00:41:10;379.13;;;192.27;;
43933;SDS011;59081;42.706;23.306;2023-01-01T00:43:37;374.67;;;191.00;;
43933;SDS011;59081;42.706;23.306;2023-01-01T00:46:02;395.33;;;205.10;;
43933;SDS011;59081;42.706;23.306;2023-01-01T00:48:29;407.42;;;211.85;;
43933;SDS011;59081;42.706;23.306;2023-01-01T00:50:55;387.48;;;192.85;;
43933;SDS011;59081;42.706;23.306;2023-01-01T00:53:20;375.02;;;189.68;;
43933;SDS011;59081;42.706;23.306;2023-01-01T00:55:47;383.35;;;198.38;;
43933;SDS011;59081;42.706;23.306;2023-01-01T00:58:14;385.52;;;197.52;;
43933;SDS011;59081;42.706;23.306;2023-01-01T01:00:40;395.27;;;204.63;;
43933;SDS011;59081;42.706;23.306;2023-01-01T01:03:06;368.58;;;193.25;;
43933;SDS011;59081;42.706;23.306;2023-01-01T01:05:32;384.15;;;194.90;;
43933;SDS011;59081;42.706;23.306;2023-01-01T01:08:01;388.40;;;206.27;;
43933;SDS011;59081;42.706;23.306;2023-01-01T01:10:26;379.90;;;195.18;;
43933;SDS011;59081;42.706;23.306;2023-01-01T01:12:52;378.90;;;196.23;;
43933;SDS011;59081;42.706;23.306;2023-01-01T01:15:17;383.02;;;198.27;;
43933;SDS011;59081;42.706;23.306;2023-01-01T01:17:43;391.13;;;210.43;;
43933;SDS011;59081;42.706;23.306;2023-01-01T01:20:09;353.75;;;180.20;;
43933;SDS011;59081;42.706;23.306;2023-01-01T01:22:36;359.25;;;177.35;;
43933;SDS011;59081;42.706;23.306;2023-01-01T01:25:01;364.15;;;178.23;;
43933;SDS011;59081;42.706;23.306;2023-01-01T01:27:27;357.20;;;174.15;;
43933;SDS011;59081;42.706;23.306;2023-01-01T01:29:52;372.40;;;187.25;;
43933;SDS011;59081;42.706;23.306;2023-01-01T01:32:18;358.75;;;181.02;;
43933;SDS011;59081;42.706;23.306;2023-01-01T01:34:44;330.10;;;174.02;;
43933;SDS011;59081;42.706;23.306;2023-01-01T01:37:10;295.65;;;152.40;;
43933;SDS011;59081;42.706;23.306;2023-01-01T01:39:36;312.88;;;160.52;;
43933;SDS011;59081;42.706;23.306;2023-01-01T01:42:02;298.48;;;153.02;;
43933;SDS011;59081;42.706;23.306;2023-01-01T01:55:28;275.30;;;144.77;;
43933;SDS011;59081;42.706;23.306;2023-01-01T01:57:56;271.05;;;133.15;;
43933;SDS011;59081;42.706;23.306;2023-01-01T02:00:22;226.95;;;114.53;;
43933;SDS011;59081;42.706;23.306;2023-01-01T02:05:38;213.38;;;109.82;;
43933;SDS011;59081;42.706;23.306;2023-01-01T02:08:05;237.15;;;120.25;;
43933;SDS011;59081;42.706;23.306;2023-01-01T02:10:31;258.10;;;127.50;;
43933;SDS011;59081;42.706;23.306;2023-01-01T02:12:57;256.35;;;126.65;;
43933;SDS011;59081;42.706;23.306;2023-01-01T02:15:24;271.65;;;129.50;;
43933;SDS011;59081;42.706;23.306;2023-01-01T02:20:39;314.77;;;150.20;;
43933;SDS011;59081;42.706;23.306;2023-01-01T02:26:09;298.95;;;147.70;;
43933;SDS011;59081;42.706;23.306;2023-01-01T02:29:45;282.55;;;138.43;;
43933;SDS011;59081;42.706;23.306;2023-01-01T02:34:26;259.05;;;131.85;;
43933;SDS011;59081;42.706;23.306;2023-01-01T02:36:57;230.43;;;119.78;;
43933;SDS011;59081;42.706;23.306;2023-01-01T02:39:26;229.80;;;120.45;;
43933;SDS011;59081;42.706;23.306;2023-01-01T02:41:56;249.18;;;127.13;;
43933;SDS011;59081;42.706;23.306;2023-01-01T02:44:25;252.02;;;129.13;;
43933;SDS011;59081;42.706;23.306;2023-01-01T02:46:53;276.75;;;141.02;;
43933;SDS011;59081;42.706;23.306;2023-01-01T02:49:18;314.58;;;156.20;;
43933;SDS011;59081;42.706;23.306;2023-01-01T02:52:31;296.45;;;146.32;;
43933;SDS011;59081;42.706;23.306;2023-01-01T02:57:34;314.88;;;155.23;;
43933;SDS011;59081;42.706;23.306;2023-01-01T03:00:05;287.77;;;138.85;;
43933;SDS011;59081;42.706;23.306;2023-01-01T03:11:19;282.10;;;132.05;;
43933;SDS011;59081;42.706;23.306;2023-01-01T03:16:30;278.08;;;141.77;;
43933;SDS011;59081;42.706;23.306;2023-01-01T03:24:17;277.58;;;129.93;;
43933;SDS011;59081;42.706;23.306;2023-01-01T03:26:47;222.85;;;99.90;;
43933;SDS011;59081;42.706;23.306;2023-01-01T03:29:16;226.70;;;111.28;;
43933;SDS011;59081;42.706;23.306;2023-01-01T03:31:43;223.68;;;108.80;;
43933;SDS011;59081;42.706;23.306;2023-01-01T03:34:14;234.05;;;111.00;;
43933;SDS011;59081;42.706;23.306;2023-01-01T03:39:26;229.02;;;107.05;;
43933;SDS011;59081;42.706;23.306;2023-01-01T03:45:21;226.43;;;105.45;;
43933;SDS011;59081;42.706;23.306;2023-01-01T03:47:41;216.65;;;106.10;;
43933;SDS011;59081;42.706;23.306;2023-01-01T03:50:07;215.68;;;104.40;;
43933;SDS011;59081;42.706;23.306;2023-01-01T03:55:37;224.70;;;107.60;;
43933;SDS011;59081;42.706;23.306;2023-01-01T04:01:17;220.13;;;105.13;;
43933;SDS011;59081;42.706;23.306;2023-01-01T04:03:50;195.10;;;98.63;;
43933;SDS011;59081;42.706;23.306;2023-01-01T04:06:16;200.93;;;102.82;;
43933;SDS011;59081;42.706;23.306;2023-01-01T04:08:42;204.30;;;102.32;;
43933;SDS011;59081;42.706;23.306;2023-01-01T04:11:10;210.55;;;106.57;;
43933;SDS011;59081;42.706;23.306;2023-01-01T04:14:00;213.27;;;99.00;;
43933;SDS011;59081;42.706;23.306;2023-01-01T04:16:26;194.60;;;94.85;;
43933;SDS011;59081;42.706;23.306;2023-01-01T04:18:51;197.60;;;94.25;;
43933;SDS011;59081;42.706;23.306;2023-01-01T04:21:17;189.60;;;94.00;;
43933;SDS011;59081;42.706;23.306;2023-01-01T04:23:42;201.23;;;96.47;;
43933;SDS011;59081;42.706;23.306;2023-01-01T04:26:11;195.18;;;94.40;;
43933;SDS011;59081;42.706;23.306;2023-01-01T04:28:38;181.90;;;93.15;;
43933;SDS011;59081;42.706;23.306;2023-01-01T04:31:03;181.50;;;94.10;;
43933;SDS011;59081;42.706;23.306;2023-01-01T04:33:29;194.48;;;98.40;;
43933;SDS011;59081;42.706;23.306;2023-01-01T04:35:54;207.63;;;99.88;;
43933;SDS011;59081;42.706;23.306;2023-01-01T04:38:20;216.40;;;108.00;;
43933;SDS011;59081;42.706;23.306;2023-01-01T04:40:45;211.65;;;105.10;;
43933;SDS011;59081;42.706;23.306;2023-01-01T04:43:22;210.88;;;106.90;;
43933;SDS011;59081;42.706;23.306;2023-01-01T04:45:57;195.23;;;97.07;;
43933;SDS011;59081;42.706;23.306;2023-01-01T04:48:24;200.30;;;98.32;;
43933;SDS011;59081;42.706;23.306;2023-01-01T04:50:56;204.23;;;102.63;;
43933;SDS011;59081;42.706;23.306;2023-01-01T04:53:23;205.98;;;100.10;;
43933;SDS011;59081;42.706;23.306;2023-01-01T04:55:49;197.40;;;95.78;;
43933;SDS011;59081;42.706;23.306;2023-01-01T04:58:15;203.15;;;104.88;;
43933;SDS011;59081;42.706;23.306;2023-01-01T05:00:40;208.52;;;106.95;;
43933;SDS011;59081;42.706;23.306;2023-01-01T05:03:06;230.43;;;115.78;;
43933;SDS011;59081;42.706;23.306;2023-01-01T05:05:32;230.68;;;114.20;;
43933;SDS011;59081;42.706;23.306;2023-01-01T05:07:57;229.95;;;117.60;;
43933;SDS011;59081;42.706;23.306;2023-01-01T05:10:22;227.10;;;114.32;;
43933;SDS011;59081;42.706;23.306;2023-01-01T05:12:48;237.02;;;106.90;;
43933;SDS011;59081;42.706;23.306;2023-01-01T05:15:13;222.07;;;106.55;;
43933;SDS011;59081;42.706;23.306;2023-01-01T05:17:39;206.27;;;104.70;;
43933;SDS011;59081;42.706;23.306;2023-01-01T05:20:04;197.80;;;97.72;;
43933;SDS011;59081;42.706;23.306;2023-01-01T05:22:30;195.88;;;98.45;;
43933;SDS011;59081;42.706;23.306;2023-01-01T05:24:56;199.77;;;101.15;;
43933;SDS011;59081;42.706;23.306;2023-01-01T05:27:21;200.80;;;102.40;;
43933;SDS011;59081;42.706;23.306;2023-01-01T05:29:46;199.40;;;96.82;;
43933;SDS011;59081;42.706;23.306;2023-01-01T05:32:12;237.23;;;116.90;;
43933;SDS011;59081;42.706;23.306;2023-01-01T05:34:37;208.43;;;105.35;;
43933;SDS011;59081;42.706;23.306;2023-01-01T05:37:03;219.77;;;110.00;;
43933;SDS011;59081;42.706;23.306;2023-01-01T05:39:28;236.30;;;117.93;;
43933;SDS011;59081;42.706;23.306;2023-01-01T05:41:53;224.13;;;110.20;;
43933;SDS011;59081;42.706;23.306;2023-01-01T05:44:19;217.13;;;100.90;;
43933;SDS011;59081;42.706;23.306;2023-01-01T05:46:44;221.75;;;110.95;;
43933;SDS011;59081;42.706;23.306;2023-01-01T05:49:10;213.63;;;102.97;;
43933;SDS011;59081;42.706;23.306;2023-01-01T05:51:36;209.02;;;100.32;;
43933;SDS011;59081;42.706;23.306;2023-01-01T05:54:02;188.93;;;89.75;;
43933;SDS011;59081;42.706;23.306;2023-01-01T05:56:28;199.77;;;96.63;;
43933;SDS011;59081;42.706;23.306;2023-01-01T05:58:54;179.13;;;90.50;;
43933;SDS011;59081;42.706;23.306;2023-01-01T06:01:21;176.77;;;83.10;;
43933;SDS011;59081;42.706;23.306;2023-01-01T06:03:48;192.80;;;92.50;;
43933;SDS011;59081;42.706;23.306;2023-01-01T06:06:16;189.70;;;91.72;;
43933;SDS011;59081;42.706;23.306;2023-01-01T06:08:50;172.05;;;82.97;;
43933;SDS011;59081;42.706;23.306;2023-01-01T06:11:20;173.40;;;81.97;;
43933;SDS011;59081;42.706;23.306;2023-01-01T06:13:47;168.65;;;82.72;;
43933;SDS011;59081;42.706;23.306;2023-01-01T06:16:15;170.07;;;83.65;;
43933;SDS011;59081;42.706;23.306;2023-01-01T06:18:40;170.68;;;86.70;;
43933;SDS011;59081;42.706;23.306;2023-01-01T06:21:10;183.20;;;85.82;;
43933;SDS011;59081;42.706;23.306;2023-01-01T06:23:37;180.80;;;91.82;;
43933;SDS011;59081;42.706;23.306;2023-01-01T06:26:07;178.27;;;91.28;;
43933;SDS011;59081;42.706;23.306;2023-01-01T06:28:35;198.13;;;96.32;;
43933;SDS011;59081;42.706;23.306;2023-01-01T06:31:01;201.82;;;102.78;;
43933;SDS011;59081;42.706;23.306;2023-01-01T06:33:28;204.35;;;102.65;;
43933;SDS011;59081;42.706;23.306;2023-01-01T06:35:54;202.88;;;103.18;;
43933;SDS011;59081;42.706;23.306;2023-01-01T06:38:20;202.38;;;98.97;;
43933;SDS011;59081;42.706;23.306;2023-01-01T06:40:58;212.25;;;99.80;;
43933;SDS011;59081;42.706;23.306;2023-01-01T06:43:25;189.38;;;90.70;;
43933;SDS011;59081;42.706;23.306;2023-01-01T06:45:58;187.88;;;88.57;;
43933;SDS011;59081;42.706;23.306;2023-01-01T06:48:27;179.20;;;86.07;;
43933;SDS011;59081;42.706;23.306;2023-01-01T06:50:53;182.93;;;90.88;;
43933;SDS011;59081;42.706;23.306;2023-01-01T06:53:21;188.90;;;95.43;;
43933;SDS011;59081;42.706;23.306;2023-01-01T06:55:48;199.48;;;98.50;;
43933;SDS011;59081;42.706;23.306;2023-01-01T06:58:14;204.20;;;101.38;;
43933;SDS011;59081;42.706;23.306;2023-01-01T07:00:39;209.77;;;102.70;;
43933;SDS011;59081;42.706;23.306;2023-01-01T07:03:05;209.63;;;103.50;;
43933;SDS011;59081;42.706;23.306;2023-01-01T07:05:30;196.25;;;96.82;;
43933;SDS011;59081;42.706;23.306;2023-01-01T07:07:55;207.40;;;95.10;;
43933;SDS011;59081;42.706;23.306;2023-01-01T07:10:21;197.18;;;94.72;;
43933;SDS011;59081;42.706;23.306;2023-01-01T07:12:46;194.07;;;95.65;;
43933;SDS011;59081;42.706;23.306;2023-01-01T07:15:12;186.05;;;96.32;;
43933;SDS011;59081;42.706;23.306;2023-01-01T07:17:37;187.75;;;94.97;;
43933;SDS011;59081;42.706;23.306;2023-01-01T07:20:03;191.48;;;97.38;;
43933;SDS011;59081;42.706;23.306;2023-01-01T07:22:28;192.18;;;95.80;;
43933;SDS011;59081;42.706;23.306;2023-01-01T07:24:54;190.70;;;95.95;;
43933;SDS011;59081;42.706;23.306;2023-01-01T07:27:19;194.50;;;97.95;;
43933;SDS011;59081;42.706;23.306;2023-01-01T07:29:44;187.93;;;93.18;;
43933;SDS011;59081;42.706;23.306;2023-01-01T07:32:11;195.80;;;96.38;;
43933;SDS011;59081;42.706;23.306;2023-01-01T07:34:37;191.68;;;98.38;;
43933;SDS011;59081;42.706;23.306;2023-01-01T07:37:03;194.48;;;100.95;;
43933;SDS011;59081;42.706;23.306;2023-01-01T07:39:28;179.32;;;93.32;;
43933;SDS011;59081;42.706;23.306;2023-01-01T07:41:53;148.98;;;79.57;;
43933;SDS011;59081;42.706;23.306;2023-01-01T07:44:19;153.18;;;77.75;;
43933;SDS011;59081;42.706;23.306;2023-01-01T07:46:44;161.68;;;83.28;;
43933;SDS011;59081;42.706;23.306;2023-01-01T07:49:10;158.10;;;80.60;;
43933;SDS011;59081;42.706;23.306;2023-01-01T07:51:35;165.27;;;81.38;;
43933;SDS011;59081;42.706;23.306;2023-01-01T07:54:01;152.57;;;81.60;;
43933;SDS011;59081;42.706;23.306;2023-01-01T07:56:26;142.68;;;73.90;;
43933;SDS011;59081;42.706;23.306;2023-01-01T07:58:52;144.77;;;75.22;;
43933;SDS011;59081;42.706;23.306;2023-01-01T08:01:17;159.48;;;76.80;;
43933;SDS011;59081;42.706;23.306;2023-01-01T08:03:43;154.85;;;76.07;;
43933;SDS011;59081;42.706;23.306;2023-01-01T08:06:09;155.02;;;78.93;;
43933;SDS011;59081;42.706;23.306;2023-01-01T08:08:36;155.73;;;79.10;;
43933;SDS011;59081;42.706;23.306;2023-01-01T08:11:02;143.52;;;71.40;;
43933;SDS011;59081;42.706;23.306;2023-01-01T08:13:27;149.02;;;75.18;;
43933;SDS011;59081;42.706;23.306;2023-01-01T08:15:53;160.55;;;81.22;;
43933;SDS011;59081;42.706;23.306;2023-01-01T08:18:19;146.02;;;76.82;;
43933;SDS011;59081;42.706;23.306;2023-01-01T08:20:45;138.35;;;75.15;;
43933;SDS011;59081;42.706;23.306;2023-01-01T08:23:10;157.82;;;72.43;;
43933;SDS011;59081;42.706;23.306;2023-01-01T08:25:36;139.02;;;73.25;;
43933;SDS011;59081;42.706;23.306;2023-01-01T08:28:01;137.00;;;71.93;;
43933;SDS011;59081;42.706;23.306;2023-01-01T08:30:26;154.18;;;75.15;;
43933;SDS011;59081;42.706;23.306;2023-01-01T08:32:52;152.48;;;78.85;;
43933;SDS011;59081;42.706;23.306;2023-01-01T08:35:17;155.52;;;77.80;;
43933;SDS011;59081;42.706;23.306;2023-01-01T08:37:43;153.63;;;76.15;;
43933;SDS011;59081;42.706;23.306;2023-01-01T08:40:09;145.25;;;74.55;;
43933;SDS011;59081;42.706;23.306;2023-01-01T08:42:36;134.77;;;69.70;;
43933;SDS011;59081;42.706;23.306;2023-01-01T08:45:02;143.43;;;73.70;;
43933;SDS011;59081;42.706;23.306;2023-01-01T08:47:28;162.13;;;77.97;;
43933;SDS011;59081;42.706;23.306;2023-01-01T08:49:53;164.20;;;76.85;;
43933;SDS011;59081;42.706;23.306;2023-01-01T08:52:19;149.02;;;74.82;;
43933;SDS011;59081;42.706;23.306;2023-01-01T08:54:45;142.80;;;72.43;;
43933;SDS011;59081;42.706;23.306;2023-01-01T08:57:13;132.43;;;67.45;;
43933;SDS011;59081;42.706;23.306;2023-01-01T08:59:39;137.63;;;67.93;;
43933;SDS011;59081;42.706;23.306;2023-01-01T09:02:04;128.48;;;66.10;;
43933;SDS011;59081;42.706;23.306;2023-01-01T09:04:31;128.02;;;61.08;;
43933;SDS011;59081;42.706;23.306;2023-01-01T09:06:56;114.45;;;62.78;;
43933;SDS011;59081;42.706;23.306;2023-01-01T09:09:22;120.88;;;61.25;;
43933;SDS011;59081;42.706;23.306;2023-01-01T09:11:51;115.35;;;58.80;;
43933;SDS011;59081;42.706;23.306;2023-01-01T09:14:17;105.50;;;56.83;;
43933;SDS011;59081;42.706;23.306;2023-01-01T09:16:43;106.05;;;54.75;;
43933;SDS011;59081;42.706;23.306;2023-01-01T09:19:08;106.18;;;56.88;;
43933;SDS011;59081;42.706;23.306;2023-01-01T09:21:33;95.05;;;54.95;;
43933;SDS011;59081;42.706;23.306;2023-01-01T09:23:59;99.95;;;53.58;;
43933;SDS011;59081;42.706;23.306;2023-01-01T09:26:24;96.85;;;50.83;;
43933;SDS011;59081;42.706;23.306;2023-01-01T09:28:51;88.75;;;48.88;;
43933;SDS011;59081;42.706;23.306;2023-01-01T09:31:16;85.00;;;46.70;;
43933;SDS011;59081;42.706;23.306;2023-01-01T09:33:41;74.72;;;42.38;;
43933;SDS011;59081;42.706;23.306;2023-01-01T09:36:11;76.72;;;41.92;;
43933;SDS011;59081;42.706;23.306;2023-01-01T09:38:50;86.03;;;48.10;;
43933;SDS011;59081;42.706;23.306;2023-01-01T09:44:29;83.38;;;44.22;;
43933;SDS011;59081;42.706;23.306;2023-01-01T09:47:21;77.75;;;42.90;;
43933;SDS011;59081;42.706;23.306;2023-01-01T09:49:53;85.88;;;47.10;;
43933;SDS011;59081;42.706;23.306;2023-01-01T09:52:24;92.38;;;48.85;;
43933;SDS011;59081;42.706;23.306;2023-01-01T09:55:10;75.53;;;44.45;;
43933;SDS011;59081;42.706;23.306;2023-01-01T09:57:42;81.68;;;50.40;;
43933;SDS011;59081;42.706;23.306;2023-01-01T10:00:15;85.50;;;50.25;;
43933;SDS011;59081;42.706;23.306;2023-01-01T10:10:52;62.38;;;37.72;;
43933;SDS011;59081;42.706;23.306;2023-01-01T10:16:04;73.88;;;40.47;;
43933;SDS011;59081;42.706;23.306;2023-01-01T10:18:36;67.32;;;38.88;;
43933;SDS011;59081;42.706;23.306;2023-01-01T10:23:35;70.55;;;42.40;;
43933;SDS011;59081;42.706;23.306;2023-01-01T10:26:24;81.07;;;45.28;;
43933;SDS011;59081;42.706;23.306;2023-01-01T10:28:56;76.55;;;42.15;;
43933;SDS011;59081;42.706;23.306;2023-01-01T10:31:30;71.80;;;44.28;;
43933;SDS011;59081;42.706;23.306;2023-01-01T10:33:58;65.40;;;39.78;;
43933;SDS011;59081;42.706;23.306;2023-01-01T10:36:36;65.75;;;39.45;;
43933;SDS011;59081;42.706;23.306;2023-01-01T10:39:01;64.25;;;37.53;;
43933;SDS011;59081;42.706;23.306;2023-01-01T10:41:27;64.63;;;38.22;;
43933;SDS011;59081;42.706;23.306;2023-01-01T10:43:53;69.25;;;42.88;;
43933;SDS011;59081;42.706;23.306;2023-01-01T10:46:20;73.90;;;45.75;;
43933;SDS011;59081;42.706;23.306;2023-01-01T10:49:10;78.40;;;45.75;;
43933;SDS011;59081;42.706;23.306;2023-01-01T10:51:46;91.10;;;54.22;;
43933;SDS011;59081;42.706;23.306;2023-01-01T10:54:33;95.65;;;56.00;;
43933;SDS011;59081;42.706;23.306;2023-01-01T10:57:21;84.22;;;52.75;;
43933;SDS011;59081;42.706;23.306;2023-01-01T11:00:05;87.45;;;52.92;;
43933;SDS011;59081;42.706;23.306;2023-01-01T11:02:35;94.45;;;57.90;;
43933;SDS011;59081;42.706;23.306;2023-01-01T11:05:14;88.68;;;51.65;;
43933;SDS011;59081;42.706;23.306;2023-01-01T11:07:41;93.72;;;56.58;;
43933;SDS011;59081;42.706;23.306;2023-01-01T11:10:15;95.90;;;55.22;;
43933;SDS011;59081;42.706;23.306;2023-01-01T11:12:43;93.75;;;55.47;;
43933;SDS011;59081;42.706;23.306;2023-01-01T11:15:19;92.20;;;52.15;;
43933;SDS011;59081;42.706;23.306;2023-01-01T11:18:04;85.68;;;53.50;;
43933;SDS011;59081;42.706;23.306;2023-01-01T11:20:36;93.18;;;55.63;;
43933;SDS011;59081;42.706;23.306;2023-01-01T11:23:16;85.18;;;52.13;;
43933;SDS011;59081;42.706;23.306;2023-01-01T11:26:18;76.55;;;50.13;;
43933;SDS011;59081;42.706;23.306;2023-01-01T11:31:26;74.18;;;48.40;;
43933;SDS011;59081;42.706;23.306;2023-01-01T11:33:55;80.43;;;48.00;;
43933;SDS011;59081;42.706;23.306;2023-01-01T11:38:49;78.38;;;49.20;;
43933;SDS011;59081;42.706;23.306;2023-01-01T11:41:28;65.93;;;43.97;;
43933;SDS011;59081;42.706;23.306;2023-01-01T11:44:04;73.45;;;45.33;;
43933;SDS011;59081;42.706;23.306;2023-01-01T11:46:29;74.63;;;45.40;;
43933;SDS011;59081;42.706;23.306;2023-01-01T11:48:56;76.85;;;48.85;;
43933;SDS011;59081;42.706;23.306;2023-01-01T11:51:31;71.60;;;47.65;;
43933;SDS011;59081;42.706;23.306;2023-01-01T11:54:08;76.25;;;43.92;;
43933;SDS011;59081;42.706;23.306;2023-01-01T11:56:36;70.95;;;43.08;;
43933;SDS011;59081;42.706;23.306;2023-01-01T11:59:03;62.63;;;40.75;;
43933;SDS011;59081;42.706;23.306;2023-01-01T12:01:41;70.68;;;44.75;;
43933;SDS011;59081;42.706;23.306;2023-01-01T12:07:05;66.97;;;43.55;;
43933;SDS011;59081;42.706;23.306;2023-01-01T12:09:36;65.82;;;43.85;;
43933;SDS011;59081;42.706;23.306;2023-01-01T12:12:12;73.95;;;45.17;;
43933;SDS011;59081;42.706;23.306;2023-01-01T12:14:58;66.90;;;42.50;;
43933;SDS011;59081;42.706;23.306;2023-01-01T12:17:33;65.05;;;41.38;;
43933;SDS011;59081;42.706;23.306;2023-01-01T12:22:45;66.78;;;42.50;;
43933;SDS011;59081;42.706;23.306;2023-01-01T12:25:16;64.00;;;41.03;;
43933;SDS011;59081;42.706;23.306;2023-01-01T12:27:48;65.18;;;41.15;;
43933;SDS011;59081;42.706;23.306;2023-01-01T12:30:38;63.50;;;38.75;;
43933;SDS011;59081;42.706;23.306;2023-01-01T12:46:49;68.80;;;41.70;;
43933;SDS011;59081;42.706;23.306;2023-01-01T12:59:48;55.10;;;37.38;;
43933;SDS011;59081;42.706;23.306;2023-01-01T13:02:18;59.88;;;37.30;;
43933;SDS011;59081;42.706;23.306;2023-01-01T13:04:47;58.78;;;37.35;;
43933;SDS011;59081;42.706;23.306;2023-01-01T13:07:19;63.17;;;40.65;;
43933;SDS011;59081;42.706;23.306;2023-01-01T13:10:04;55.35;;;35.78;;
43933;SDS011;59081;42.706;23.306;2023-01-01T13:12:54;62.85;;;40.13;;
43933;SDS011;59081;42.706;23.306;2023-01-01T13:15:34;58.95;;;38.70;;
43933;SDS011;59081;42.706;23.306;2023-01-01T13:18:06;92.38;;;49.42;;
43933;SDS011;59081;42.706;23.306;2023-01-01T13:20:46;64.57;;;41.17;;
43933;SDS011;59081;42.706;23.306;2023-01-01T13:31:38;50.40;;;35.08;;
43933;SDS011;59081;42.706;23.306;2023-01-01T13:45:37;73.30;;;47.10;;
43933;SDS011;59081;42.706;23.306;2023-01-01T14:05:12;49.88;;;34.95;;
43933;SDS011;59081;42.706;23.306;2023-01-01T14:07:52;54.92;;;34.00;;
43933;SDS011;59081;42.706;23.306;2023-01-01T14:12:49;62.75;;;37.00;;
43933;SDS011;59081;42.706;23.306;2023-01-01T14:15:27;54.20;;;32.72;;
43933;SDS011;59081;42.706;23.306;2023-01-01T14:17:55;68.55;;;39.13;;
43933;SDS011;59081;42.706;23.306;2023-01-01T14:20:26;97.57;;;58.03;;
43933;SDS011;59081;42.706;23.306;2023-01-01T14:23:01;76.53;;;47.30;;
43933;SDS011;59081;42.706;23.306;2023-01-01T14:25:32;56.35;;;34.38;;
43933;SDS011;59081;42.706;23.306;2023-01-01T14:27:58;64.15;;;37.50;;
43933;SDS011;59081;42.706;23.306;2023-01-01T14:30:24;64.30;;;37.72;;
43933;SDS011;59081;42.706;23.306;2023-01-01T14:32:57;75.95;;;41.20;;
43933;SDS011;59081;42.706;23.306;2023-01-01T14:35:24;67.82;;;40.30;;
43933;SDS011;59081;42.706;23.306;2023-01-01T14:37:50;72.97;;;45.55;;
43933;SDS011;59081;42.706;23.306;2023-01-01T14:42:50;64.38;;;38.97;;
43933;SDS011;59081;42.706;23.306;2023-01-01T14:45:25;59.38;;;36.60;;
43933;SDS011;59081;42.706;23.306;2023-01-01T14:47:51;75.53;;;44.40;;
43933;SDS011;59081;42.706;23.306;2023-01-01T14:50:23;92.57;;;53.00;;
43933;SDS011;59081;42.706;23.306;2023-01-01T14:53:05;70.22;;;41.97;;
43933;SDS011;59081;42.706;23.306;2023-01-01T14:55:39;66.80;;;40.95;;
43933;SDS011;59081;42.706;23.306;2023-01-01T14:58:11;84.22;;;45.75;;
43933;SDS011;59081;42.706;23.306;2023-01-01T15:00:40;142.90;;;71.18;;
43933;SDS011;59081;42.706;23.306;2023-01-01T15:03:11;121.18;;;58.55;;
43933;SDS011;59081;42.706;23.306;2023-01-01T15:05:39;89.10;;;48.33;;
43933;SDS011;59081;42.706;23.306;2023-01-01T15:08:16;76.72;;;42.38;;
43933;SDS011;59081;42.706;23.306;2023-01-01T15:10:46;68.97;;;37.30;;
43933;SDS011;59081;42.706;23.306;2023-01-01T15:13:16;152.68;;;79.40;;
43933;SDS011;59081;42.706;23.306;2023-01-01T15:15:53;114.88;;;59.60;;
43933;SDS011;59081;42.706;23.306;2023-01-01T15:23:51;67.18;;;38.33;;
43933;SDS011;59081;42.706;23.306;2023-01-01T15:26:29;63.70;;;37.60;;
43933;SDS011;59081;42.706;23.306;2023-01-01T15:28:58;64.15;;;37.42;;
43933;SDS011;59081;42.706;23.306;2023-01-01T15:31:38;64.97;;;34.22;;
43933;SDS011;59081;42.706;23.306;2023-01-01T15:34:13;64.32;;;34.33;;
43933;SDS011;59081;42.706;23.306;2023-01-01T15:36:45;60.67;;;34.88;;
43933;SDS011;59081;42.706;23.306;2023-01-01T15:39:11;57.83;;;34.13;;
43933;SDS011;59081;42.706;23.306;2023-01-01T15:41:50;57.03;;;33.63;;
43933;SDS011;59081;42.706;23.306;2023-01-01T15:44:17;62.25;;;34.08;;
43933;SDS011;59081;42.706;23.306;2023-01-01T15:46:49;55.88;;;33.67;;
43933;SDS011;59081;42.706;23.306;2023-01-01T15:49:27;70.60;;;36.03;;
43933;SDS011;59081;42.706;23.306;2023-01-01T15:51:57;64.13;;;37.50;;
43933;SDS011;59081;42.706;23.306;2023-01-01T15:54:28;64.15;;;38.53;;
43933;SDS011;59081;42.706;23.306;2023-01-01T15:56:54;78.75;;;41.85;;
43933;SDS011;59081;42.706;23.306;2023-01-01T15:59:23;70.95;;;39.65;;
43933;SDS011;59081;42.706;23.306;2023-01-01T16:02:00;77.07;;;38.00;;
43933;SDS011;59081;42.706;23.306;2023-01-01T16:04:37;80.63;;;42.50;;
43933;SDS011;59081;42.706;23.306;2023-01-01T16:07:04;86.10;;;45.08;;
43933;SDS011;59081;42.706;23.306;2023-01-01T16:09:30;75.72;;;40.40;;
43933;SDS011;59081;42.706;23.306;2023-01-01T16:11:59;81.35;;;41.67;;
43933;SDS011;59081;42.706;23.306;2023-01-01T16:14:25;77.60;;;43.17;;
43933;SDS011;59081;42.706;23.306;2023-01-01T16:16:54;74.78;;;41.40;;
43933;SDS011;59081;42.706;23.306;2023-01-01T16:19:24;76.88;;;41.40;;
43933;SDS011;59081;42.706;23.306;2023-01-01T16:21:51;74.30;;;40.38;;
43933;SDS011;59081;42.706;23.306;2023-01-01T16:24:17;87.10;;;44.25;;
43933;SDS011;59081;42.706;23.306;2023-01-01T16:26:44;84.60;;;44.95;;
43933;SDS011;59081;42.706;23.306;2023-01-01T16:29:09;102.53;;;47.03;;
43933;SDS011;59081;42.706;23.306;2023-01-01T16:31:35;88.00;;;47.42;;
43933;SDS011;59081;42.706;23.306;2023-01-01T16:34:01;101.35;;;46.92;;
43933;SDS011;59081;42.706;23.306;2023-01-01T16:36:27;106.07;;;52.30;;
43933;SDS011;59081;42.706;23.306;2023-01-01T16:38:56;111.22;;;53.75;;
43933;SDS011;59081;42.706;23.306;2023-01-01T16:41:22;121.70;;;58.03;;